createdAt,value
2023-01-15T10:01:12.534Z,7.90
2023-01-15T10:08:15.957Z,7.50
2023-01-15T10:11:15.836Z,7.50
2023-01-15T10:13:59.738Z,7.70
2023-01-15T10:16:55.394Z,7.80
2023-01-15T10:19:44.432Z,7.90
2023-01-15T10:22:23.241Z,8.00
2023-01-15T10:25:06.706Z,8.10
2023-01-15T10:27:36.017Z,8.10
2023-01-15T10:34:04.057Z,8.20
2023-01-15T10:37:21.883Z,8.00
2023-01-15T10:40:51.310Z,8.20
2023-01-15T10:46:54.897Z,8.40
2023-01-15T10:50:06.814Z,8.30
2023-01-15T10:56:14.979Z,8.40
2023-01-15T12:57:43.584Z,8.50
2023-01-15T13:00:32.735Z,8.50
2023-01-15T13:51:47.078Z,8.00
2023-01-15T14:54:32.252Z,8.00
2023-01-15T15:00:29.753Z,8.00
2023-01-15T16:27:45.717Z,7.90
2023-01-15T16:30:16.407Z,7.80
2023-01-15T16:35:45.364Z,7.90
2023-01-15T16:41:28.482Z,7.80
2023-01-15T16:43:59.464Z,7.80
2023-01-15T16:46:30.857Z,7.80
2023-01-15T16:49:19.114Z,7.70
2023-01-15T16:51:46.777Z,7.70
2023-01-15T16:54:29.744Z,7.80
2023-01-15T16:57:02.782Z,7.80
2023-01-15T16:59:31.016Z,7.80
2023-01-15T17:02:17.143Z,7.70
2023-01-15T17:05:14.564Z,7.60
2023-01-15T17:07:42.703Z,7.70
2023-01-15T17:11:26.190Z,7.80
2023-01-15T17:14:29.963Z,7.80
2023-01-15T17:17:23.407Z,7.80
2023-01-15T17:19:52.319Z,7.80
2023-01-15T17:22:29.238Z,7.70
2023-01-15T17:24:59.618Z,7.60
2023-01-15T17:27:29.476Z,7.60
2023-01-15T17:33:39.877Z,7.80
2023-01-15T17:36:32.377Z,7.60
2023-01-15T18:35:13.618Z,7.70
2023-01-15T18:39:14.566Z,7.50
2023-01-15T18:42:01.380Z,7.50
2023-01-15T20:45:22.830Z,7.40
2023-01-15T20:48:50.515Z,7.50
2023-01-15T20:51:20.043Z,7.60
2023-01-15T20:53:52.676Z,7.70
2023-01-15T20:56:33.458Z,7.40
2023-01-15T20:59:01.136Z,7.50
2023-01-15T21:04:14.942Z,7.40
2023-01-15T21:06:42.790Z,7.40
2023-01-15T21:09:10.433Z,7.40
2023-01-15T21:11:38.457Z,7.60
2023-01-15T21:14:06.378Z,7.70
2023-01-15T21:16:37.473Z,7.70
2023-01-15T21:19:05.569Z,7.60
2023-01-15T21:21:33.634Z,7.60
2023-01-15T21:24:02.292Z,7.50
2023-01-15T21:26:34.307Z,7.40
2023-01-15T21:29:02.648Z,7.30
2023-01-15T21:31:30.640Z,7.40
2023-01-15T21:34:01.093Z,7.50
2023-01-15T21:36:31.481Z,7.50
2023-01-15T21:39:00.319Z,7.30
2023-01-15T21:41:58.573Z,7.40
